createdAt,value
2022-10-06T00:01:32.075Z,6.80
2022-10-06T00:04:02.096Z,7.45
2022-10-06T00:06:33.767Z,7.90
2022-10-06T00:09:03.900Z,8.15
2022-10-06T00:11:33.444Z,9.32
2022-10-06T00:14:02.800Z,7.47
2022-10-06T00:16:32.361Z,7.97
2022-10-06T00:19:01.889Z,7.82
2022-10-06T00:21:32.696Z,7.82
2022-10-06T00:24:02.699Z,6.97
2022-10-06T00:26:32.140Z,6.68
2022-10-06T00:29:01.533Z,7.10
2022-10-06T00:31:31.619Z,6.97
2022-10-06T00:34:01.041Z,7.50
2022-10-06T00:36:31.797Z,7.22
2022-10-06T00:39:01.821Z,7.15
2022-10-06T00:41:31.106Z,9.05
2022-10-06T00:44:02.167Z,6.93
2022-10-06T00:46:38.586Z,7.40
2022-10-06T00:49:12.939Z,7.43
2022-10-06T00:51:47.909Z,7.60
2022-10-06T00:54:18.331Z,7.78
2022-10-06T00:59:20.193Z,7.38
2022-10-06T01:01:56.867Z,7.53
2022-10-06T01:04:27.435Z,7.70
2022-10-06T01:07:01.091Z,7.82
2022-10-06T01:09:31.728Z,7.82
2022-10-06T01:12:04.713Z,8.70
2022-10-06T01:14:34.921Z,9.27
2022-10-06T01:19:49.073Z,8.82
2022-10-06T01:22:28.249Z,9.13
2022-10-06T01:24:57.758Z,9.55
2022-10-06T01:27:30.877Z,10.93
2022-10-06T01:30:01.224Z,9.55
2022-10-06T01:32:35.972Z,9.43
2022-10-06T01:35:06.061Z,10.35
2022-10-06T01:37:37.660Z,10.07
2022-10-06T01:40:08.017Z,9.45
2022-10-06T01:42:38.199Z,9.98
2022-10-06T01:45:09.185Z,9.80
2022-10-06T01:47:39.489Z,9.38
2022-10-06T01:50:09.744Z,10.47
2022-10-06T01:52:40.509Z,11.18
2022-10-06T01:55:10.832Z,8.77
2022-10-06T01:57:43.791Z,10.20
2022-10-06T02:00:14.540Z,9.38
2022-10-06T02:02:44.237Z,11.20
2022-10-06T02:05:14.893Z,10.23
2022-10-06T02:07:45.612Z,10.13
2022-10-06T02:12:44.232Z,9.65
2022-10-06T02:15:13.581Z,10.75
2022-10-06T02:17:44.048Z,10.40
2022-10-06T02:20:13.481Z,10.15
2022-10-06T02:22:45.127Z,10.15
2022-10-06T02:25:14.812Z,10.95
2022-10-06T02:27:44.194Z,10.70
2022-10-06T02:30:14.846Z,10.85
2022-10-06T02:35:14.617Z,9.60
2022-10-06T02:37:46.257Z,10.77
2022-10-06T02:40:16.674Z,11.07
2022-10-06T02:42:46.076Z,10.88
2022-10-06T02:45:16.335Z,10.70
2022-10-06T02:47:46.798Z,11.88
2022-10-06T02:50:16.112Z,10.02
2022-10-06T02:52:46.836Z,9.90
2022-10-06T02:55:16.849Z,11.55
2022-10-06T02:57:46.269Z,9.32
2022-10-06T03:00:17.338Z,9.23
2022-10-06T03:02:47.276Z,9.18
2022-10-06T03:05:16.977Z,9.02
2022-10-06T03:07:48.093Z,8.50
2022-10-06T03:10:17.981Z,8.13
2022-10-06T03:12:47.457Z,8.90
2022-10-06T03:15:16.977Z,8.63
2022-10-06T03:17:50.564Z,8.25
2022-10-06T03:20:19.848Z,7.18
2022-10-06T03:22:51.163Z,9.88
2022-10-06T03:25:20.946Z,8.13
2022-10-06T03:27:50.813Z,8.05
2022-10-06T03:30:20.177Z,7.50
2022-10-06T03:32:50.001Z,6.35
2022-10-06T03:35:19.997Z,6.90
2022-10-06T03:37:50.777Z,6.53
2022-10-06T03:40:20.013Z,6.88
2022-10-06T03:42:50.057Z,6.55
2022-10-06T03:45:19.316Z,6.43
2022-10-06T03:47:48.756Z,6.05
2022-10-06T03:50:18.615Z,5.97
2022-10-06T03:52:51.587Z,6.25
2022-10-06T03:55:22.693Z,5.88
2022-10-06T04:00:21.333Z,5.18
2022-10-06T04:02:51.913Z,5.85
2022-10-06T04:05:21.176Z,5.07
2022-10-06T04:07:51.169Z,4.33
2022-10-06T04:10:22.265Z,5.78
2022-10-06T04:12:51.941Z,5.25
2022-10-06T04:15:21.343Z,5.43
2022-10-06T04:17:50.632Z,5.55
2022-10-06T04:20:20.359Z,5.30
2022-10-06T04:22:49.612Z,4.38
2022-10-06T04:25:19.138Z,5.00
2022-10-06T04:27:50.273Z,5.45
2022-10-06T04:32:48.806Z,3.80
2022-10-06T04:35:19.603Z,4.68
2022-10-06T04:37:48.901Z,4.30
2022-10-06T04:40:19.169Z,4.47
2022-10-06T04:42:50.921Z,4.15
2022-10-06T04:45:21.225Z,4.35
2022-10-06T04:47:51.730Z,3.78
2022-10-06T04:50:20.978Z,3.95
2022-10-06T04:52:52.594Z,4.60
2022-10-06T04:55:22.006Z,5.28
2022-10-06T04:57:53.422Z,5.25
2022-10-06T05:02:56.746Z,3.92
2022-10-06T05:05:26.390Z,4.32
2022-10-06T05:07:56.460Z,4.90
2022-10-06T05:10:26.303Z,3.83
2022-10-06T05:12:57.775Z,4.55
2022-10-06T05:15:28.471Z,4.25
2022-10-06T05:17:58.043Z,4.22
2022-10-06T05:20:27.713Z,4.03
2022-10-06T05:22:56.954Z,4.32
2022-10-06T05:25:26.578Z,4.03
2022-10-06T05:27:57.474Z,4.35
2022-10-06T05:30:26.881Z,3.83
2022-10-06T05:32:56.398Z,3.58
2022-10-06T05:35:25.645Z,4.38
2022-10-06T05:37:56.593Z,3.92
2022-10-06T05:40:26.334Z,4.10
2022-10-06T05:42:58.870Z,4.20
2022-10-06T05:45:28.767Z,3.22
2022-10-06T05:47:58.433Z,4.07
2022-10-06T05:50:27.789Z,4.07
2022-10-06T05:52:57.752Z,3.45
2022-10-06T05:55:27.405Z,3.75
2022-10-06T05:57:58.464Z,3.15
2022-10-06T06:00:28.255Z,3.25
2022-10-06T06:02:57.644Z,3.47
2022-10-06T06:05:27.593Z,3.37
2022-10-06T06:07:56.838Z,3.78
2022-10-06T06:10:26.262Z,3.10
2022-10-06T06:12:55.886Z,2.85
2022-10-06T06:15:44.330Z,2.92
2022-10-06T06:18:14.950Z,2.88
2022-10-06T06:20:44.481Z,2.78
2022-10-06T06:23:13.788Z,3.13
2022-10-06T06:25:44.582Z,2.27
2022-10-06T06:28:13.876Z,2.33
2022-10-06T06:30:45.385Z,2.50
2022-10-06T06:33:14.742Z,2.30
2022-10-06T06:35:44.306Z,2.60
2022-10-06T06:38:14.070Z,2.07
2022-10-06T06:40:43.462Z,2.58
2022-10-06T06:43:14.000Z,2.95
2022-10-06T06:45:45.419Z,2.50
2022-10-06T06:50:46.019Z,1.90
2022-10-06T06:53:16.504Z,2.60
2022-10-06T06:55:51.445Z,2.45
2022-10-06T06:58:21.299Z,2.50
2022-10-06T07:00:53.492Z,2.60
2022-10-06T07:03:45.271Z,2.75
2022-10-06T07:06:16.641Z,3.25
2022-10-06T07:08:47.828Z,2.60
2022-10-06T07:11:19.723Z,2.53
2022-10-06T07:13:52.965Z,2.65
2022-10-06T07:16:42.226Z,2.10
2022-10-06T07:19:29.710Z,2.72
2022-10-06T07:22:18.654Z,2.90
2022-10-06T07:25:06.173Z,2.33
2022-10-06T07:27:37.937Z,3.08
2022-10-06T07:30:07.920Z,2.83
2022-10-06T07:32:39.348Z,3.08
2022-10-06T07:35:09.345Z,2.72
2022-10-06T07:37:39.376Z,2.72
2022-10-06T07:40:10.157Z,2.53
2022-10-06T07:42:49.520Z,3.25
2022-10-06T07:45:37.807Z,2.58
2022-10-06T07:48:11.475Z,2.50
2022-10-06T07:50:41.117Z,2.95
2022-10-06T07:53:11.307Z,2.47
2022-10-06T07:55:41.844Z,2.33
2022-10-06T07:58:15.662Z,1.73
2022-10-06T08:00:46.306Z,1.58
2022-10-06T08:03:18.534Z,1.55
2022-10-06T08:05:48.754Z,1.33
2022-10-06T08:10:54.763Z,1.38
2022-10-06T08:13:25.051Z,0.70
2022-10-06T08:15:56.694Z,0.73
2022-10-06T08:18:45.486Z,1.55
2022-10-06T08:21:17.559Z,0.77
2022-10-06T08:23:48.985Z,0.75
2022-10-06T08:28:50.321Z,0.70
2022-10-06T08:31:21.577Z,0.55
2022-10-06T08:33:57.028Z,0.50
2022-10-06T08:36:31.859Z,0.65
2022-10-06T08:39:02.887Z,3.30
2022-10-06T08:41:40.764Z,0.68
2022-10-06T08:44:26.180Z,1.05
2022-10-06T08:47:00.767Z,0.85
2022-10-06T08:49:36.837Z,0.68
2022-10-06T08:52:20.755Z,0.68
2022-10-06T08:54:58.786Z,0.80
2022-10-06T08:57:36.021Z,0.63
2022-10-06T09:00:13.111Z,1.17
2022-10-06T09:02:46.450Z,0.98
2022-10-06T09:05:25.711Z,0.60
2022-10-06T09:08:15.089Z,0.52
2022-10-06T09:10:52.574Z,0.50
2022-10-06T09:13:26.258Z,0.90
2022-10-06T09:15:58.394Z,1.20
2022-10-06T09:19:07.834Z,1.08
2022-10-06T09:21:32.154Z,0.98
2022-10-06T09:24:08.104Z,0.95
2022-10-06T09:26:37.876Z,0.80
2022-10-06T09:29:07.247Z,0.70
2022-10-06T09:31:39.878Z,0.75
2022-10-06T09:34:20.254Z,0.95
2022-10-06T09:37:04.254Z,1.00
2022-10-06T09:39:37.008Z,1.85
2022-10-06T09:42:13.728Z,1.27
2022-10-06T09:44:53.648Z,0.77
2022-10-06T09:47:40.681Z,0.80
2022-10-06T09:50:22.293Z,1.10
2022-10-06T09:53:12.577Z,1.05
2022-10-06T09:55:55.068Z,0.90
2022-10-06T09:58:34.492Z,0.70
2022-10-06T10:01:07.337Z,0.65
2022-10-06T10:04:08.626Z,1.55
2022-10-06T10:06:37.026Z,1.10
2022-10-06T10:09:28.136Z,0.88
2022-10-06T10:12:28.310Z,1.15
2022-10-06T10:17:39.193Z,1.48
2022-10-06T10:20:25.132Z,1.00
2022-10-06T10:22:54.868Z,1.13
2022-10-06T10:25:46.378Z,1.30
2022-10-06T10:28:33.874Z,1.50
2022-10-06T10:31:09.689Z,0.95
2022-10-06T10:33:54.184Z,0.80
2022-10-06T10:36:39.490Z,1.83
2022-10-06T10:39:15.711Z,1.00
2022-10-06T10:41:50.772Z,0.90
2022-10-06T10:44:29.229Z,0.98
2022-10-06T10:47:07.375Z,1.08
2022-10-06T10:49:37.110Z,0.90
2022-10-06T10:52:13.929Z,0.82
2022-10-06T10:54:49.442Z,1.35
2022-10-06T10:57:24.129Z,1.15
2022-10-06T11:00:00.925Z,1.17
2022-10-06T11:02:31.754Z,1.38
2022-10-06T11:07:38.572Z,1.02
2022-10-06T11:10:18.540Z,0.93
2022-10-06T11:13:16.482Z,1.40
2022-10-06T11:16:02.390Z,0.93
2022-10-06T11:18:48.184Z,1.33
2022-10-06T11:21:21.910Z,1.50
2022-10-06T11:23:59.186Z,1.00
2022-10-06T11:26:48.664Z,1.10
2022-10-06T11:29:31.818Z,1.23
2022-10-06T11:32:12.059Z,2.50
2022-10-06T11:34:43.192Z,1.20
2022-10-06T11:37:25.424Z,1.80
2022-10-06T11:40:04.653Z,1.25
2022-10-06T11:42:44.371Z,1.25
2022-10-06T11:45:17.762Z,0.82
2022-10-06T11:48:11.114Z,0.95
2022-10-06T11:50:42.601Z,0.80
2022-10-06T11:53:41.269Z,1.33
2022-10-06T11:56:41.296Z,2.17
2022-10-06T11:59:31.841Z,1.40
2022-10-06T12:02:03.855Z,1.10
2022-10-06T12:04:33.370Z,0.95
2022-10-06T12:07:05.142Z,2.17
2022-10-06T12:09:52.948Z,0.82
2022-10-06T12:13:06.847Z,1.10
2022-10-06T12:19:12.314Z,1.02
2022-10-06T12:21:50.384Z,1.80
2022-10-06T12:24:49.465Z,1.42
2022-10-06T12:28:17.524Z,1.02
2022-10-06T12:31:21.675Z,1.15
2022-10-06T12:34:03.893Z,1.60
2022-10-06T12:36:48.479Z,1.35
2022-10-06T12:39:32.102Z,1.08
2022-10-06T12:42:25.500Z,1.50
2022-10-06T12:45:07.906Z,1.25
2022-10-06T12:47:43.730Z,1.27
2022-10-06T12:50:21.199Z,0.98
2022-10-06T12:52:55.094Z,1.40
2022-10-06T12:55:42.388Z,1.15
2022-10-06T12:58:19.257Z,0.85
2022-10-06T13:00:49.252Z,1.25
2022-10-06T13:05:54.008Z,1.20
2022-10-06T13:08:27.473Z,0.98
2022-10-06T13:11:15.289Z,1.15
2022-10-06T13:13:52.096Z,1.23
2022-10-06T13:16:25.406Z,0.85
2022-10-06T13:18:57.206Z,1.10
2022-10-06T13:21:27.762Z,1.40
2022-10-06T13:23:59.366Z,1.60
2022-10-06T13:26:32.447Z,1.08
2022-10-06T13:29:02.734Z,1.73
2022-10-06T13:31:33.848Z,1.88
2022-10-06T13:34:06.260Z,1.20
2022-10-06T13:36:37.580Z,0.82
2022-10-06T13:39:13.575Z,1.45
2022-10-06T13:41:47.651Z,0.75
2022-10-06T13:44:30.797Z,1.17
2022-10-06T13:47:04.005Z,1.02
2022-10-06T13:49:37.235Z,1.13
2022-10-06T13:52:16.721Z,1.30
2022-10-06T13:54:53.583Z,1.33
2022-10-06T13:57:38.878Z,1.88
2022-10-06T14:00:19.332Z,1.13
2022-10-06T14:02:50.535Z,2.17
2022-10-06T14:05:30.720Z,1.48
2022-10-06T14:08:02.429Z,1.33
2022-10-06T14:10:38.511Z,1.70
2022-10-06T14:13:10.709Z,0.95
2022-10-06T14:15:48.197Z,1.25
2022-10-06T14:18:22.270Z,2.10
2022-10-06T14:20:53.646Z,1.83
2022-10-06T14:26:25.919Z,1.50
2022-10-06T14:28:55.804Z,1.10
2022-10-06T14:31:27.828Z,1.25
2022-10-06T14:33:58.491Z,1.70
2022-10-06T14:36:30.012Z,1.27
2022-10-06T14:39:00.729Z,2.25
2022-10-06T14:41:32.800Z,1.23
2022-10-06T14:44:03.791Z,1.30
2022-10-06T14:46:33.807Z,2.28
2022-10-06T14:49:07.799Z,1.77
2022-10-06T14:51:38.686Z,1.50
2022-10-06T14:54:11.320Z,2.45
2022-10-06T14:56:43.589Z,1.70
2022-10-06T14:59:17.484Z,1.45
2022-10-06T15:01:48.305Z,1.52
2022-10-06T15:04:20.453Z,1.33
2022-10-06T15:07:07.569Z,1.80
2022-10-06T15:09:37.446Z,2.03
2022-10-06T15:12:08.764Z,2.90
2022-10-06T15:14:40.157Z,2.00
2022-10-06T15:17:10.596Z,1.92
2022-10-06T15:19:40.627Z,2.08
2022-10-06T15:22:10.684Z,2.10
2022-10-06T15:24:39.947Z,1.48
2022-10-06T15:27:28.320Z,2.28
2022-10-06T15:29:58.304Z,1.70
2022-10-06T15:32:27.636Z,1.38
2022-10-06T15:34:57.086Z,1.65
2022-10-06T15:37:26.662Z,1.48
2022-10-06T15:39:56.073Z,2.22
2022-10-06T15:42:27.081Z,1.67
2022-10-06T15:44:57.081Z,1.80
2022-10-06T15:47:27.101Z,1.90
2022-10-06T15:49:56.429Z,3.00
2022-10-06T15:52:26.211Z,1.50
2022-10-06T15:54:55.609Z,1.30
2022-10-06T15:57:28.615Z,2.25
2022-10-06T15:59:57.874Z,1.90
2022-10-06T16:02:29.477Z,2.00
2022-10-06T16:05:28.414Z,2.38
2022-10-06T16:07:58.216Z,2.33
2022-10-06T16:10:27.606Z,1.95
2022-10-06T16:12:58.525Z,1.80
2022-10-06T16:15:28.717Z,2.30
2022-10-06T16:17:58.009Z,2.20
2022-10-06T16:20:27.378Z,2.38
2022-10-06T16:22:57.292Z,1.80
2022-10-06T16:25:26.684Z,1.98
2022-10-06T16:27:56.001Z,2.28
2022-10-06T16:30:27.530Z,1.67
2022-10-06T16:35:26.854Z,2.00
2022-10-06T16:37:56.384Z,2.15
2022-10-06T16:40:25.658Z,1.90
2022-10-06T16:42:55.506Z,2.10
2022-10-06T16:45:25.469Z,2.10
2022-10-06T16:47:56.301Z,2.40
2022-10-06T16:50:25.953Z,3.72
2022-10-06T16:52:55.571Z,2.17
2022-10-06T16:55:24.839Z,3.30
2022-10-06T16:57:54.765Z,3.03
2022-10-06T17:00:24.087Z,2.22
2022-10-06T17:02:54.740Z,2.25
2022-10-06T17:05:26.111Z,2.58
2022-10-06T17:07:59.071Z,2.17
2022-10-06T17:10:28.833Z,2.80
2022-10-06T17:12:58.233Z,2.60
2022-10-06T17:15:32.755Z,3.17
2022-10-06T17:18:02.850Z,2.40
2022-10-06T17:20:33.882Z,2.53
2022-10-06T17:23:03.124Z,2.25
2022-10-06T17:25:32.695Z,2.00
2022-10-06T17:28:02.448Z,2.47
2022-10-06T17:30:31.882Z,4.38
2022-10-06T17:33:01.430Z,2.88
2022-10-06T17:35:31.376Z,2.08
2022-10-06T17:38:03.073Z,2.78
2022-10-06T17:40:33.072Z,2.00
2022-10-06T17:43:02.498Z,2.65
2022-10-06T17:45:31.937Z,3.00
2022-10-06T17:48:01.490Z,2.67
2022-10-06T17:50:30.753Z,2.15
2022-10-06T17:53:01.865Z,2.58
2022-10-06T17:55:31.839Z,3.10
2022-10-06T17:58:01.235Z,1.98
2022-10-06T18:00:32.132Z,2.50
2022-10-06T18:03:01.703Z,2.85
2022-10-06T18:05:33.153Z,2.08
2022-10-06T18:08:05.721Z,3.58
2022-10-06T18:10:48.610Z,2.42
2022-10-06T18:13:18.305Z,3.20
2022-10-06T18:15:48.394Z,2.22
2022-10-06T18:18:18.148Z,2.25
2022-10-06T18:20:48.531Z,2.30
2022-10-06T18:23:19.288Z,3.10
2022-10-06T18:25:49.266Z,2.00
2022-10-06T18:28:18.706Z,2.30
2022-10-06T18:30:51.872Z,4.00
2022-10-06T18:36:14.753Z,2.30
2022-10-06T18:38:47.551Z,3.05
2022-10-06T18:41:18.607Z,3.00
2022-10-06T18:43:48.748Z,2.45
2022-10-06T18:46:36.586Z,2.58
2022-10-06T18:49:12.564Z,3.00
2022-10-06T18:51:43.688Z,3.55
2022-10-06T18:54:17.215Z,2.70
2022-10-06T18:56:49.384Z,3.20
2022-10-06T18:59:20.240Z,2.97
2022-10-06T19:01:51.049Z,2.00
2022-10-06T19:04:22.545Z,2.17
2022-10-06T19:06:56.756Z,2.83
2022-10-06T19:09:27.882Z,2.42
2022-10-06T19:14:31.896Z,2.53
2022-10-06T19:17:02.587Z,3.10
2022-10-06T19:19:33.026Z,2.25
2022-10-06T19:22:04.748Z,2.63
2022-10-06T19:24:38.794Z,4.07
2022-10-06T19:27:12.506Z,3.80
2022-10-06T19:29:46.090Z,3.17
2022-10-06T19:32:17.905Z,3.33
2022-10-06T19:34:48.761Z,3.60
2022-10-06T19:37:18.599Z,4.20
2022-10-06T19:39:50.422Z,2.58
2022-10-06T19:42:38.799Z,3.50
2022-10-06T19:45:09.869Z,3.17
2022-10-06T19:47:40.090Z,3.30
2022-10-06T19:50:12.586Z,2.95
2022-10-06T19:52:42.996Z,2.92
2022-10-06T19:55:13.709Z,2.88
2022-10-06T19:57:43.355Z,2.90
2022-10-06T20:00:14.486Z,2.45
2022-10-06T20:02:45.583Z,3.00
2022-10-06T20:05:17.758Z,2.20
2022-10-06T20:07:48.736Z,2.60
2022-10-06T20:10:20.482Z,2.38
2022-10-06T20:15:20.268Z,3.00
2022-10-06T20:17:49.603Z,3.10
2022-10-06T20:20:20.838Z,2.50
2022-10-06T20:22:51.142Z,3.10
2022-10-06T20:25:21.883Z,2.60
2022-10-06T20:27:52.095Z,3.05
2022-10-06T20:30:21.678Z,3.45
2022-10-06T20:32:50.955Z,2.45
2022-10-06T20:35:20.822Z,2.15
2022-10-06T20:37:50.104Z,2.80
2022-10-06T20:40:37.794Z,2.35
2022-10-06T20:43:07.682Z,1.85
2022-10-06T20:45:36.969Z,3.78
2022-10-06T20:48:06.789Z,3.28
2022-10-06T20:50:36.170Z,2.10
2022-10-06T20:53:05.441Z,2.05
2022-10-06T20:55:37.042Z,1.80
2022-10-06T21:00:35.666Z,2.22
2022-10-06T21:03:05.267Z,2.00
2022-10-06T21:05:35.032Z,3.33
2022-10-06T21:08:04.367Z,2.97
2022-10-06T21:10:33.630Z,2.05
2022-10-06T21:13:05.133Z,2.10
2022-10-06T21:15:34.729Z,2.65
2022-10-06T21:18:05.946Z,1.98
2022-10-06T21:23:05.071Z,2.63
2022-10-06T21:25:38.527Z,1.92
2022-10-06T21:28:09.840Z,2.92
2022-10-06T21:30:39.450Z,2.53
2022-10-06T21:33:09.633Z,2.30
2022-10-06T21:35:39.153Z,3.03
2022-10-06T21:38:08.587Z,2.20
2022-10-06T21:40:38.792Z,2.22
2022-10-06T21:43:09.579Z,1.45
2022-10-06T21:45:41.410Z,2.80
2022-10-06T21:48:11.198Z,1.90
2022-10-06T21:50:40.736Z,1.70
2022-10-06T21:53:10.027Z,1.50
2022-10-06T21:55:39.699Z,1.77
2022-10-06T21:58:10.439Z,2.17
2022-10-06T22:00:40.640Z,1.83
2022-10-06T22:05:39.611Z,2.25
2022-10-06T22:08:08.947Z,2.47
2022-10-06T22:10:38.463Z,2.35
2022-10-06T22:13:07.716Z,1.80
2022-10-06T22:15:39.374Z,2.30
2022-10-06T22:18:09.419Z,1.65
2022-10-06T22:20:38.838Z,1.70
2022-10-06T22:23:08.107Z,2.45
2022-10-06T22:25:38.088Z,1.65
2022-10-06T22:28:07.504Z,1.60
2022-10-06T22:30:38.754Z,1.88
2022-10-06T22:33:08.360Z,1.98
2022-10-06T22:35:37.705Z,2.40
2022-10-06T22:38:07.286Z,2.05
2022-10-06T22:40:37.065Z,1.90
2022-10-06T22:43:06.517Z,1.60
2022-10-06T22:45:35.815Z,1.73
2022-10-06T22:48:07.488Z,2.07
2022-10-06T22:53:06.644Z,1.20
2022-10-06T22:55:36.188Z,2.38
2022-10-06T22:58:05.548Z,1.77
2022-10-06T23:00:36.955Z,1.42
2022-10-06T23:03:08.588Z,2.17
2022-10-06T23:05:38.427Z,2.00
2022-10-06T23:08:09.127Z,1.67
2022-10-06T23:10:39.331Z,1.95
2022-10-06T23:13:08.969Z,1.60
2022-10-06T23:15:38.428Z,2.15
2022-10-06T23:18:10.034Z,1.13
2022-10-06T23:20:39.696Z,1.70
2022-10-06T23:23:09.710Z,1.75
2022-10-06T23:25:39.698Z,1.98
2022-10-06T23:28:09.361Z,1.70
2022-10-06T23:30:39.384Z,2.17
2022-10-06T23:33:10.941Z,1.63
2022-10-06T23:35:40.576Z,1.33
2022-10-06T23:38:10.717Z,1.80
2022-10-06T23:40:40.324Z,1.95
2022-10-06T23:43:10.341Z,2.03
2022-10-06T23:45:40.639Z,1.80
2022-10-06T23:48:12.447Z,1.60
2022-10-06T23:53:11.117Z,1.65
2022-10-06T23:55:40.842Z,2.60
2022-10-06T23:58:10.331Z,1.75
